createdAt,value
2022-08-16T00:02:22.310Z,52.47
2022-08-16T00:04:51.083Z,52.34
2022-08-16T00:07:19.831Z,52.26
2022-08-16T00:09:48.364Z,51.84
2022-08-16T00:12:18.083Z,51.74
2022-08-16T00:14:46.975Z,51.69
2022-08-16T00:17:18.706Z,51.30
2022-08-16T00:19:49.049Z,51.09
2022-08-16T00:22:24.991Z,50.76
2022-08-16T00:24:56.210Z,50.67
2022-08-16T00:27:24.259Z,50.61
2022-08-16T00:30:00.700Z,50.42
2022-08-16T00:32:38.502Z,50.40
2022-08-16T00:35:15.126Z,50.23
2022-08-16T00:37:58.434Z,50.04
2022-08-16T00:40:34.386Z,49.77
2022-08-16T00:43:11.695Z,49.59
2022-08-16T00:45:58.384Z,49.65
2022-08-16T00:48:43.751Z,49.58
2022-08-16T00:51:16.083Z,49.60
2022-08-16T00:53:46.673Z,49.72
2022-08-16T00:56:56.932Z,49.97
2022-08-16T00:59:06.220Z,50.00
2022-08-16T01:01:36.010Z,50.18
2022-08-16T01:04:06.863Z,50.32
2022-08-16T01:07:01.729Z,50.36
2022-08-16T01:09:37.348Z,50.48
2022-08-16T01:12:08.814Z,50.48
2022-08-16T01:14:45.774Z,50.46
2022-08-16T01:17:17.090Z,50.67
2022-08-16T01:19:48.301Z,50.57
2022-08-16T01:22:46.965Z,50.61
2022-08-16T01:25:18.308Z,50.52
2022-08-16T01:27:54.868Z,50.52
2022-08-16T01:30:28.468Z,50.58
2022-08-16T01:33:02.269Z,50.54
2022-08-16T01:35:46.108Z,50.63
2022-08-16T01:38:20.445Z,50.53
2022-08-16T01:40:51.477Z,50.49
2022-08-16T01:43:20.498Z,50.40
2022-08-16T01:45:57.854Z,50.47
2022-08-16T01:48:28.870Z,50.58
2022-08-16T01:51:08.365Z,50.52
2022-08-16T01:53:40.645Z,50.65
2022-08-16T01:56:26.867Z,50.71
2022-08-16T01:58:58.237Z,50.89
2022-08-16T02:01:28.098Z,51.14
2022-08-16T02:03:58.704Z,51.15
2022-08-16T02:06:45.251Z,51.35
2022-08-16T02:09:15.233Z,51.45
2022-08-16T02:11:53.237Z,51.52
2022-08-16T02:14:27.212Z,51.56
2022-08-16T02:16:56.958Z,51.47
2022-08-16T02:19:59.976Z,51.47
2022-08-16T02:22:33.641Z,51.44
2022-08-16T02:25:09.895Z,51.26
2022-08-16T02:27:41.781Z,51.32
2022-08-16T02:30:37.246Z,51.19
2022-08-16T02:33:04.595Z,51.14
2022-08-16T02:35:34.820Z,51.28
2022-08-16T02:38:23.393Z,51.04
2022-08-16T02:40:54.652Z,51.05
2022-08-16T02:43:28.085Z,51.13
2022-08-16T02:45:58.622Z,50.92
2022-08-16T02:48:29.579Z,50.92
2022-08-16T02:51:05.811Z,50.70
2022-08-16T02:53:36.537Z,50.59
2022-08-16T02:56:05.427Z,50.86
2022-08-16T02:58:39.056Z,50.88
2022-08-16T03:01:12.663Z,50.85
2022-08-16T03:04:30.216Z,50.94
2022-08-16T03:06:39.634Z,51.01
2022-08-16T03:09:22.505Z,51.24
2022-08-16T03:11:54.505Z,51.43
2022-08-16T03:14:24.589Z,51.58
2022-08-16T03:16:59.436Z,51.73
2022-08-16T03:19:47.139Z,51.88
2022-08-16T03:22:19.361Z,52.09
2022-08-16T03:24:59.020Z,51.97
2022-08-16T03:27:31.216Z,52.01
2022-08-16T03:30:17.485Z,52.11
2022-08-16T03:32:58.234Z,52.03
2022-08-16T03:35:32.456Z,52.22
2022-08-16T03:38:04.991Z,52.09
2022-08-16T03:40:53.989Z,52.21
2022-08-16T03:43:24.529Z,52.25
2022-08-16T03:46:48.449Z,52.34
2022-08-16T03:49:04.666Z,52.35
2022-08-16T03:51:33.008Z,52.24
2022-08-16T03:54:04.924Z,52.00
2022-08-16T03:56:56.880Z,51.89
2022-08-16T03:59:29.838Z,51.92
2022-08-16T04:02:01.237Z,51.85
2022-08-16T04:04:33.120Z,51.75
2022-08-16T04:07:06.982Z,51.50
2022-08-16T04:09:38.247Z,51.48
2022-08-16T04:12:10.715Z,51.10
2022-08-16T04:14:46.707Z,50.92
2022-08-16T04:17:17.051Z,50.74
2022-08-16T04:19:46.699Z,50.55
2022-08-16T04:22:17.462Z,50.29
2022-08-16T04:24:53.259Z,50.12
2022-08-16T04:27:24.443Z,50.01
2022-08-16T04:29:53.104Z,50.01
2022-08-16T04:32:32.009Z,49.94
2022-08-16T04:35:06.355Z,49.84
2022-08-16T04:37:42.375Z,49.69
2022-08-16T04:40:21.685Z,49.73
2022-08-16T04:42:50.853Z,49.56
2022-08-16T04:45:19.583Z,49.58
2022-08-16T04:48:06.326Z,49.54
2022-08-16T04:50:43.429Z,49.60
2022-08-16T04:53:15.981Z,49.40
2022-08-16T04:55:46.973Z,49.35
2022-08-16T04:58:45.295Z,49.18
2022-08-16T05:01:10.706Z,48.97
2022-08-16T05:03:42.001Z,48.50
2022-08-16T05:06:42.197Z,48.41
2022-08-16T05:09:16.301Z,48.72
2022-08-16T05:11:45.418Z,49.12
2022-08-16T05:14:20.036Z,49.43
2022-08-16T05:17:01.763Z,49.66
2022-08-16T05:19:36.188Z,49.76
2022-08-16T05:22:18.180Z,49.92
2022-08-16T05:24:47.069Z,50.12
2022-08-16T05:27:15.515Z,50.20
2022-08-16T05:30:00.764Z,50.18
2022-08-16T05:32:36.377Z,50.26
2022-08-16T05:35:14.539Z,50.30
2022-08-16T05:38:02.703Z,50.20
2022-08-16T05:40:57.161Z,50.23
2022-08-16T05:43:28.159Z,50.16
2022-08-16T05:46:00.622Z,50.00
2022-08-16T05:48:28.381Z,49.79
2022-08-16T05:51:01.453Z,49.40
2022-08-16T05:53:32.818Z,49.17
2022-08-16T05:56:10.907Z,48.72
2022-08-16T05:58:48.711Z,48.58
2022-08-16T06:01:17.160Z,48.19
2022-08-16T06:03:48.097Z,47.88
2022-08-16T06:06:27.922Z,47.99
2022-08-16T06:08:57.615Z,47.70
2022-08-16T06:11:26.289Z,47.48
2022-08-16T06:13:58.691Z,47.48
2022-08-16T06:16:38.404Z,47.52
2022-08-16T06:19:06.521Z,47.58
2022-08-16T06:21:36.895Z,47.60
2022-08-16T06:24:55.261Z,47.75
2022-08-16T06:26:57.779Z,47.85
2022-08-16T06:29:28.067Z,48.01
2022-08-16T06:31:56.583Z,48.05
2022-08-16T06:34:56.102Z,48.11
2022-08-16T06:37:14.549Z,48.23
2022-08-16T06:39:49.610Z,48.36
2022-08-16T06:42:56.829Z,48.38
2022-08-16T06:45:33.614Z,48.31
2022-08-16T06:48:07.492Z,48.02
2022-08-16T06:50:37.960Z,47.75
2022-08-16T06:53:09.576Z,47.63
2022-08-16T06:55:43.333Z,47.58
2022-08-16T06:58:22.091Z,47.44
2022-08-16T07:00:59.568Z,47.42
2022-08-16T07:03:32.630Z,47.44
2022-08-16T07:06:01.910Z,47.41
2022-08-16T07:08:37.926Z,47.29
2022-08-16T07:11:07.733Z,47.40
2022-08-16T07:16:27.620Z,47.58
2022-08-16T07:19:01.569Z,47.59
2022-08-16T07:21:46.137Z,47.64
2022-08-16T07:24:29.549Z,48.35
2022-08-16T07:27:02.975Z,48.88
2022-08-16T07:29:31.647Z,49.71
2022-08-16T07:32:01.692Z,49.79
2022-08-16T07:34:35.297Z,50.07
2022-08-16T07:37:06.100Z,51.02
2022-08-16T07:39:50.806Z,52.27
2022-08-16T07:42:28.709Z,52.93
2022-08-16T07:45:10.144Z,53.25
2022-08-16T07:47:40.060Z,53.18
2022-08-16T07:50:57.263Z,53.08
2022-08-16T07:53:01.977Z,52.98
2022-08-16T07:55:45.502Z,52.82
2022-08-16T07:58:18.425Z,53.00
2022-08-16T08:01:10.386Z,52.95
2022-08-16T08:03:48.249Z,53.38
2022-08-16T08:06:20.610Z,54.57
2022-08-16T08:08:50.222Z,56.23
2022-08-16T08:11:23.802Z,57.54
2022-08-16T08:13:54.191Z,58.78
2022-08-16T08:16:30.271Z,59.82
2022-08-16T08:19:02.494Z,60.61
2022-08-16T08:21:58.285Z,60.79
2022-08-16T08:24:33.371Z,61.19
2022-08-16T08:27:04.053Z,61.44
2022-08-16T08:29:37.221Z,61.99
2022-08-16T08:32:57.230Z,62.15
2022-08-16T08:35:03.720Z,61.62
2022-08-16T08:37:54.792Z,62.19
2022-08-16T08:40:27.341Z,62.67
2022-08-16T08:43:11.473Z,62.90
2022-08-16T08:45:48.542Z,62.40
2022-08-16T08:48:34.747Z,61.90
2022-08-16T08:51:13.077Z,61.52
2022-08-16T08:53:58.056Z,60.64
2022-08-16T08:56:34.948Z,60.28
2022-08-16T08:59:40.685Z,59.66
2022-08-16T09:02:12.032Z,59.01
2022-08-16T09:04:47.471Z,58.29
2022-08-16T09:07:18.111Z,58.82
2022-08-16T09:09:48.503Z,58.77
2022-08-16T09:12:35.582Z,58.39
2022-08-16T09:15:16.074Z,57.94
2022-08-16T09:17:52.339Z,57.76
2022-08-16T09:20:26.768Z,57.30
2022-08-16T09:22:56.042Z,57.04
2022-08-16T09:25:34.433Z,56.93
2022-08-16T09:28:10.489Z,56.65
2022-08-16T09:30:51.693Z,56.40
2022-08-16T09:33:21.425Z,56.15
2022-08-16T09:35:53.582Z,55.54
2022-08-16T09:38:32.478Z,55.11
2022-08-16T09:41:02.497Z,54.80
2022-08-16T09:43:59.131Z,54.66
2022-08-16T09:46:44.664Z,54.72
2022-08-16T09:49:08.434Z,54.67
2022-08-16T09:51:37.325Z,54.61
2022-08-16T09:54:05.818Z,54.70
2022-08-16T09:56:34.990Z,54.62
2022-08-16T09:59:08.066Z,54.51
2022-08-16T10:01:37.066Z,54.29
2022-08-16T10:04:34.270Z,53.54
2022-08-16T10:09:45.071Z,53.06
2022-08-16T10:12:35.402Z,51.21
2022-08-16T10:15:15.639Z,49.61
2022-08-16T10:17:59.860Z,50.00
2022-08-16T10:20:35.033Z,49.73
2022-08-16T10:23:07.054Z,50.04
2022-08-16T10:27:18.138Z,49.77
2022-08-16T10:28:29.287Z,49.27
2022-08-16T10:30:59.779Z,49.32
2022-08-16T10:33:29.738Z,49.71
2022-08-16T10:36:04.003Z,49.07
2022-08-16T10:38:36.755Z,49.05
2022-08-16T10:41:07.021Z,49.25
2022-08-16T10:43:36.456Z,49.48
2022-08-16T10:46:39.127Z,49.66
2022-08-16T10:48:57.407Z,49.45
2022-08-16T10:51:33.632Z,48.77
2022-08-16T10:54:04.946Z,47.55
2022-08-16T10:56:55.407Z,47.20
2022-08-16T10:59:32.927Z,46.43
2022-08-16T11:02:59.115Z,46.05
2022-08-16T11:05:08.678Z,45.65
2022-08-16T11:07:43.493Z,45.39
2022-08-16T11:11:06.751Z,45.09
2022-08-16T11:15:55.938Z,44.25
2022-08-16T11:18:48.526Z,43.51
2022-08-16T11:21:29.379Z,42.89
2022-08-16T11:23:59.658Z,42.08
2022-08-16T11:26:28.497Z,41.62
2022-08-16T11:29:14.041Z,41.90
2022-08-16T11:31:45.690Z,41.96
2022-08-16T11:34:22.496Z,42.02
2022-08-16T11:36:53.586Z,41.53
2022-08-16T11:39:28.901Z,40.85
2022-08-16T11:41:58.285Z,40.39
2022-08-16T11:44:52.243Z,40.34
2022-08-16T11:47:14.191Z,38.79
2022-08-16T11:49:42.003Z,37.77
2022-08-16T11:52:10.232Z,37.21
2022-08-16T11:54:40.366Z,37.66
2022-08-16T11:57:08.992Z,37.20
2022-08-16T11:59:39.607Z,36.53
2022-08-16T12:02:30.982Z,33.88
2022-08-16T12:04:57.909Z,32.08
2022-08-16T12:07:25.755Z,31.66
2022-08-16T12:09:53.966Z,30.70
2022-08-16T12:12:23.699Z,30.59
2022-08-16T12:14:59.392Z,30.82
2022-08-16T12:17:31.620Z,29.47
2022-08-16T12:20:18.567Z,28.22
2022-08-16T12:22:47.149Z,28.22
2022-08-16T12:25:16.639Z,27.67
2022-08-16T12:27:47.122Z,27.52
2022-08-16T12:30:25.956Z,27.87
2022-08-16T12:32:57.897Z,27.86
2022-08-16T12:35:26.351Z,27.83
2022-08-16T12:37:58.365Z,27.62
2022-08-16T12:40:29.938Z,27.58
2022-08-16T12:43:00.839Z,26.82
2022-08-16T12:45:30.981Z,27.04
2022-08-16T12:48:35.073Z,27.31
2022-08-16T12:51:10.916Z,26.53
2022-08-16T12:53:51.955Z,26.65
2022-08-16T12:56:21.871Z,25.93
2022-08-16T12:58:55.355Z,25.90
2022-08-16T13:01:26.976Z,26.35
2022-08-16T13:04:11.958Z,26.20
2022-08-16T13:06:44.784Z,25.63
2022-08-16T13:09:26.497Z,25.43
2022-08-16T13:12:00.167Z,25.07
2022-08-16T13:14:30.892Z,25.47
2022-08-16T13:17:01.023Z,25.79
2022-08-16T13:19:55.945Z,25.95
2022-08-16T13:22:19.550Z,25.70
2022-08-16T13:24:47.881Z,25.54
2022-08-16T13:27:16.065Z,25.37
2022-08-16T13:29:45.208Z,25.32
2022-08-16T13:32:40.069Z,25.60
2022-08-16T13:35:12.358Z,25.24
2022-08-16T13:37:41.879Z,25.55
2022-08-16T13:40:16.313Z,25.51
2022-08-16T13:42:50.135Z,25.70
2022-08-16T13:45:19.428Z,26.12
2022-08-16T13:47:52.960Z,26.29
2022-08-16T13:50:31.099Z,25.97
2022-08-16T13:53:09.547Z,26.31
2022-08-16T13:55:37.733Z,26.15
2022-08-16T13:58:36.697Z,26.18
2022-08-16T14:00:57.246Z,25.48
2022-08-16T14:03:25.077Z,25.44
2022-08-16T14:05:53.216Z,25.60
2022-08-16T14:08:26.586Z,25.73
2022-08-16T14:10:55.651Z,25.85
2022-08-16T14:13:24.222Z,25.94
2022-08-16T14:15:52.528Z,26.09
2022-08-16T14:18:20.984Z,26.08
2022-08-16T14:20:51.186Z,25.97
2022-08-16T14:23:23.803Z,25.86
2022-08-16T14:25:54.380Z,25.87
2022-08-16T14:28:25.924Z,25.73
2022-08-16T14:30:54.595Z,25.48
2022-08-16T14:33:22.651Z,25.55
2022-08-16T14:35:51.450Z,25.58
2022-08-16T14:38:23.765Z,25.47
2022-08-16T14:40:55.548Z,25.64
2022-08-16T14:43:25.476Z,25.60
2022-08-16T14:45:55.022Z,25.67
2022-08-16T14:48:26.290Z,25.39
2022-08-16T14:50:55.172Z,25.56
2022-08-16T14:53:24.304Z,25.60
2022-08-16T14:55:52.606Z,25.75
2022-08-16T14:58:34.498Z,25.86
2022-08-16T15:01:05.069Z,25.80
2022-08-16T15:03:33.281Z,26.20
2022-08-16T15:06:05.731Z,25.72
2022-08-16T15:08:37.225Z,25.36
2022-08-16T15:11:08.677Z,25.84
2022-08-16T15:13:36.575Z,25.77
2022-08-16T15:16:04.826Z,25.35
2022-08-16T15:18:33.542Z,25.59
2022-08-16T15:21:02.692Z,25.97
2022-08-16T15:23:33.826Z,25.54
2022-08-16T15:26:03.986Z,25.85
2022-08-16T15:28:33.257Z,26.07
2022-08-16T15:31:03.283Z,26.28
2022-08-16T15:33:43.433Z,26.22
2022-08-16T15:36:18.361Z,26.03
2022-08-16T15:38:57.641Z,25.94
2022-08-16T15:41:36.277Z,25.86
2022-08-16T15:44:10.880Z,25.91
2022-08-16T15:46:56.134Z,26.21
2022-08-16T15:49:37.071Z,25.97
2022-08-16T15:52:11.631Z,26.35
2022-08-16T15:54:52.458Z,26.06
2022-08-16T15:57:25.200Z,26.37
2022-08-16T15:59:55.614Z,26.89
2022-08-16T16:02:31.162Z,27.25
2022-08-16T16:05:01.530Z,27.94
2022-08-16T16:07:32.140Z,28.21
2022-08-16T16:10:02.964Z,28.36
2022-08-16T16:12:51.162Z,28.39
2022-08-16T16:15:20.298Z,28.73
2022-08-16T16:17:52.173Z,28.69
2022-08-16T16:20:24.312Z,28.91
2022-08-16T16:23:00.158Z,29.41
2022-08-16T16:25:29.229Z,29.87
2022-08-16T16:28:00.042Z,30.28
2022-08-16T16:30:37.265Z,30.78
2022-08-16T16:33:06.148Z,31.33
2022-08-16T16:35:37.260Z,31.42
2022-08-16T16:38:08.191Z,31.32
2022-08-16T16:40:46.474Z,31.21
2022-08-16T16:43:25.671Z,31.21
2022-08-16T16:45:59.320Z,31.45
2022-08-16T16:48:29.488Z,31.92
2022-08-16T16:51:09.038Z,32.94
2022-08-16T16:53:41.177Z,33.95
2022-08-16T16:56:19.888Z,35.67
2022-08-16T16:58:58.003Z,36.95
2022-08-16T17:01:41.509Z,38.16
2022-08-16T17:04:32.028Z,39.29
2022-08-16T17:07:02.281Z,40.37
2022-08-16T17:09:30.720Z,41.90
2022-08-16T17:11:59.561Z,44.28
2022-08-16T17:14:33.458Z,47.22
2022-08-16T17:17:05.292Z,51.16
2022-08-16T17:19:34.442Z,54.43
2022-08-16T17:22:14.752Z,56.65
2022-08-16T17:24:50.916Z,57.63
2022-08-16T17:27:32.178Z,57.03
2022-08-16T17:30:14.660Z,56.75
2022-08-16T17:32:47.018Z,59.34
2022-08-16T17:38:07.816Z,60.71
2022-08-16T17:39:28.192Z,60.82
2022-08-16T17:40:47.213Z,60.26
2022-08-16T17:43:31.910Z,60.25
2022-08-16T17:46:00.112Z,60.25
2022-08-16T17:48:28.324Z,60.11
2022-08-16T17:50:56.081Z,60.04
2022-08-16T17:53:24.174Z,59.82
2022-08-16T17:55:52.083Z,59.64
2022-08-16T17:58:23.365Z,59.38
2022-08-16T18:00:53.841Z,59.88
2022-08-16T18:04:06.683Z,60.15
2022-08-16T18:06:13.773Z,60.32
2022-08-16T18:08:42.739Z,60.05
2022-08-16T18:11:13.274Z,59.72
2022-08-16T18:13:43.324Z,59.90
2022-08-16T18:16:12.265Z,59.92
2022-08-16T18:18:40.674Z,60.53
2022-08-16T18:21:27.340Z,60.85
2022-08-16T18:23:55.260Z,60.82
2022-08-16T18:26:23.374Z,60.26
2022-08-16T18:28:51.213Z,60.18
2022-08-16T18:31:19.323Z,60.67
2022-08-16T18:33:47.194Z,61.06
2022-08-16T18:36:21.240Z,61.36
2022-08-16T18:38:50.208Z,61.17
2022-08-16T18:41:19.053Z,61.14
2022-08-16T18:44:22.795Z,61.12
2022-08-16T18:46:35.598Z,61.19
2022-08-16T18:49:03.644Z,61.66
2022-08-16T18:51:31.814Z,61.61
2022-08-16T18:54:00.163Z,61.57
2022-08-16T18:56:56.930Z,61.13
2022-08-16T18:59:15.718Z,60.75
2022-08-16T19:01:43.997Z,60.75
2022-08-16T19:04:55.606Z,61.06
2022-08-16T19:06:59.768Z,61.25
2022-08-16T19:09:28.206Z,60.97
2022-08-16T19:11:55.984Z,60.97
2022-08-16T19:14:30.001Z,60.77
2022-08-16T19:16:57.806Z,60.79
2022-08-16T19:19:25.693Z,61.05
2022-08-16T19:21:54.023Z,60.82
2022-08-16T19:24:21.887Z,60.70
2022-08-16T19:26:50.155Z,60.70
2022-08-16T19:29:17.964Z,61.06
2022-08-16T19:31:45.963Z,60.91
2022-08-16T19:34:15.869Z,60.87
2022-08-16T19:36:43.934Z,60.63
2022-08-16T19:39:14.231Z,60.21
2022-08-16T19:41:44.361Z,60.38
2022-08-16T19:44:13.201Z,60.63
2022-08-16T19:46:46.087Z,60.62
2022-08-16T19:49:15.991Z,60.48
2022-08-16T19:51:47.782Z,60.86
2022-08-16T19:54:16.400Z,60.89
2022-08-16T19:56:44.467Z,60.75
2022-08-16T19:59:19.938Z,60.67
2022-08-16T20:01:52.817Z,60.94
2022-08-16T20:04:22.095Z,60.92
2022-08-16T20:06:50.391Z,60.96
2022-08-16T20:09:23.884Z,60.77
2022-08-16T20:11:53.147Z,60.68
2022-08-16T20:14:25.572Z,60.52
2022-08-16T20:16:55.230Z,60.44
2022-08-16T20:19:23.345Z,60.64
2022-08-16T20:21:51.295Z,60.69
2022-08-16T20:24:35.943Z,60.82
2022-08-16T20:27:06.264Z,60.95
2022-08-16T20:29:34.582Z,61.04
2022-08-16T20:32:02.693Z,61.04
2022-08-16T20:34:30.972Z,61.17
2022-08-16T20:36:58.757Z,61.37
2022-08-16T20:39:27.247Z,61.72
2022-08-16T20:41:55.180Z,61.96
2022-08-16T20:44:25.140Z,62.03
2022-08-16T20:46:53.455Z,62.09
2022-08-16T20:49:21.329Z,62.05
2022-08-16T20:51:54.627Z,62.14
2022-08-16T20:54:25.303Z,62.14
2022-08-16T20:56:53.363Z,62.20
2022-08-16T20:59:21.341Z,62.18
2022-08-16T21:01:50.352Z,61.91
2022-08-16T21:04:23.688Z,61.92
2022-08-16T21:06:54.314Z,61.88
2022-08-16T21:09:24.380Z,61.85
2022-08-16T21:11:54.227Z,61.83
2022-08-16T21:14:22.522Z,61.73
2022-08-16T21:16:50.851Z,61.60
2022-08-16T21:19:18.929Z,61.71
2022-08-16T21:21:47.305Z,61.50
2022-08-16T21:24:15.474Z,61.63
2022-08-16T21:26:50.972Z,61.57
2022-08-16T21:29:39.711Z,61.41
2022-08-16T21:32:12.870Z,61.29
2022-08-16T21:34:41.267Z,61.29
2022-08-16T21:37:09.311Z,61.31
2022-08-16T21:39:37.203Z,61.36
2022-08-16T21:42:09.734Z,61.13
2022-08-16T21:44:38.652Z,61.20
2022-08-16T21:47:08.251Z,61.09
2022-08-16T21:49:37.370Z,61.10
2022-08-16T21:52:06.316Z,61.16
2022-08-16T21:54:34.445Z,61.05
2022-08-16T21:57:02.328Z,61.02
2022-08-16T21:59:30.746Z,60.96
2022-08-16T22:01:59.123Z,61.02
2022-08-16T22:04:37.482Z,61.22
2022-08-16T22:07:07.061Z,61.21
2022-08-16T22:09:35.312Z,61.39
2022-08-16T22:12:03.496Z,61.48
2022-08-16T22:14:32.179Z,61.61
2022-08-16T22:17:00.007Z,61.58
2022-08-16T22:19:28.652Z,61.56
2022-08-16T22:21:56.338Z,61.57
2022-08-16T22:24:24.167Z,61.79
2022-08-16T22:26:51.981Z,61.84
2022-08-16T22:29:20.004Z,62.02
2022-08-16T22:31:48.285Z,62.16
2022-08-16T22:34:16.091Z,62.18
2022-08-16T22:36:44.768Z,62.52
2022-08-16T22:39:13.880Z,62.58
2022-08-16T22:41:43.647Z,62.40
2022-08-16T22:44:13.093Z,62.27
2022-08-16T22:46:41.287Z,62.35
2022-08-16T22:49:09.730Z,62.42
2022-08-16T22:51:39.190Z,62.45
2022-08-16T22:54:34.298Z,62.49
2022-08-16T22:56:56.814Z,62.55
2022-08-16T22:59:25.292Z,62.69
2022-08-16T23:01:53.784Z,62.82
2022-08-16T23:04:22.677Z,62.97
2022-08-16T23:06:51.057Z,63.02
2022-08-16T23:09:18.903Z,62.91
2022-08-16T23:11:46.726Z,63.10
2022-08-16T23:14:15.637Z,63.41
2022-08-16T23:16:44.284Z,63.51
2022-08-16T23:19:12.958Z,63.74
2022-08-16T23:21:44.106Z,63.68
2022-08-16T23:24:12.581Z,63.56
2022-08-16T23:26:48.150Z,63.51
2022-08-16T23:29:23.475Z,63.33
2022-08-16T23:31:57.079Z,63.35
2022-08-16T23:34:26.160Z,63.52
2022-08-16T23:36:54.534Z,63.40
2022-08-16T23:39:23.010Z,63.50
2022-08-16T23:41:52.363Z,63.75
2022-08-16T23:44:55.923Z,63.89
2022-08-16T23:47:09.695Z,63.65
2022-08-16T23:50:01.253Z,63.73
2022-08-16T23:52:45.697Z,63.68
2022-08-16T23:55:16.247Z,63.43
2022-08-16T23:57:46.349Z,63.54
